createdAt,value
2023-04-03T00:00:07.129Z,22.73
2023-04-03T00:02:37.303Z,17.27
2023-04-03T00:05:08.098Z,17.90
2023-04-03T00:07:38.161Z,19.45
2023-04-03T00:10:09.291Z,23.67
2023-04-03T00:12:39.371Z,18.13
2023-04-03T00:15:10.179Z,22.02
2023-04-03T00:17:40.231Z,22.10
2023-04-03T00:20:11.616Z,16.27
2023-04-03T00:22:41.954Z,19.23
2023-04-03T00:25:12.644Z,18.67
2023-04-03T00:27:43.106Z,21.52
2023-04-03T00:30:17.219Z,19.38
2023-04-03T00:32:47.596Z,18.27
2023-04-03T00:35:18.397Z,16.63
2023-04-03T00:37:49.299Z,19.52
2023-04-03T00:40:20.848Z,19.80
2023-04-03T00:42:57.484Z,19.63
2023-04-03T00:45:39.958Z,18.30
2023-04-03T00:48:14.699Z,15.80
2023-04-03T00:50:47.186Z,22.25
2023-04-03T00:53:25.534Z,24.30
2023-04-03T00:55:58.400Z,20.75
2023-04-03T00:58:43.994Z,28.52
2023-04-03T01:01:18.610Z,21.95
2023-04-03T01:03:48.712Z,19.60
2023-04-03T01:06:25.690Z,19.95
2023-04-03T01:08:57.656Z,15.95
2023-04-03T01:11:28.255Z,21.35
2023-04-03T01:13:58.435Z,22.05
2023-04-03T01:16:30.643Z,21.10
2023-04-03T01:19:03.600Z,17.92
2023-04-03T01:22:16.839Z,22.25
2023-04-03T01:24:48.885Z,18.95
2023-04-03T01:27:20.023Z,19.23
2023-04-03T01:29:50.265Z,20.80
2023-04-03T01:32:21.210Z,26.70
2023-04-03T01:34:51.331Z,20.05
2023-04-03T01:37:22.139Z,21.70
2023-04-03T01:39:52.269Z,17.98
2023-04-03T01:42:23.173Z,23.55
2023-04-03T01:44:54.056Z,24.02
2023-04-03T01:47:25.175Z,20.52
2023-04-03T01:49:55.291Z,18.33
2023-04-03T01:52:25.833Z,20.35
2023-04-03T01:54:55.941Z,26.23
2023-04-03T01:57:26.728Z,21.85
2023-04-03T01:59:57.099Z,21.88
2023-04-03T02:02:27.751Z,20.48
2023-04-03T02:04:57.947Z,24.77
2023-04-03T02:07:28.504Z,29.80
2023-04-03T02:09:58.521Z,22.27
2023-04-03T02:12:29.015Z,17.33
2023-04-03T02:14:59.057Z,18.05
2023-04-03T02:17:30.015Z,20.48
2023-04-03T02:20:00.206Z,25.73
2023-04-03T02:22:30.681Z,20.77
2023-04-03T02:25:00.695Z,16.25
2023-04-03T02:27:31.383Z,20.35
2023-04-03T02:30:01.443Z,21.23
2023-04-03T02:32:32.544Z,18.83
2023-04-03T02:35:03.282Z,21.65
2023-04-03T02:37:34.465Z,16.63
2023-04-03T02:40:05.781Z,19.15
2023-04-03T02:42:36.575Z,19.23
2023-04-03T02:45:07.357Z,24.15
2023-04-03T02:47:38.031Z,14.10
2023-04-03T02:50:08.426Z,20.50
2023-04-03T02:52:38.944Z,17.13
2023-04-03T02:55:09.900Z,28.30
2023-04-03T02:57:40.375Z,21.55
2023-04-03T03:00:12.031Z,16.48
2023-04-03T03:02:42.742Z,21.08
2023-04-03T03:05:13.015Z,17.83
2023-04-03T03:07:43.461Z,18.63
2023-04-03T03:10:13.558Z,18.95
2023-04-03T03:12:44.102Z,20.65
2023-04-03T03:15:14.516Z,19.48
2023-04-03T03:17:45.122Z,18.10
2023-04-03T03:20:18.582Z,21.58
2023-04-03T03:22:49.098Z,17.25
2023-04-03T03:25:19.187Z,20.65
2023-04-03T03:27:49.767Z,23.95
2023-04-03T03:30:19.999Z,17.73
2023-04-03T03:32:50.748Z,16.00
2023-04-03T03:35:20.883Z,20.75
2023-04-03T03:37:51.700Z,17.95
2023-04-03T03:40:21.798Z,23.15
2023-04-03T03:42:52.779Z,20.10
2023-04-03T03:45:23.312Z,17.25
2023-04-03T03:47:53.816Z,18.42
2023-04-03T03:50:24.144Z,19.38
2023-04-03T03:52:55.259Z,19.35
2023-04-03T03:55:25.423Z,17.15
2023-04-03T03:57:58.212Z,16.52
2023-04-03T04:00:29.256Z,17.70
2023-04-03T04:03:00.729Z,12.30
2023-04-03T04:05:33.215Z,22.23
2023-04-03T04:08:04.528Z,17.30
2023-04-03T04:10:35.489Z,20.27
2023-04-03T04:13:05.997Z,20.80
2023-04-03T04:15:36.351Z,19.27
2023-04-03T04:18:07.587Z,19.55
2023-04-03T04:20:37.936Z,24.95
2023-04-03T04:23:08.986Z,17.48
2023-04-03T04:25:40.571Z,18.77
2023-04-03T04:28:11.482Z,16.08
2023-04-03T04:30:41.589Z,20.10
2023-04-03T04:33:12.757Z,17.15
2023-04-03T04:35:45.829Z,21.90
2023-04-03T04:38:16.388Z,14.93
2023-04-03T04:40:46.448Z,22.98
2023-04-03T04:43:17.999Z,33.22
2023-04-03T04:45:51.237Z,25.00
2023-04-03T04:48:22.866Z,21.80
2023-04-03T04:50:52.910Z,20.27
2023-04-03T04:53:23.467Z,21.88
2023-04-03T04:55:54.096Z,18.55
2023-04-03T04:58:24.814Z,25.17
2023-04-03T05:01:09.213Z,29.42
2023-04-03T05:03:48.072Z,21.98
2023-04-03T05:06:18.523Z,20.80
2023-04-03T05:08:49.267Z,23.65
2023-04-03T05:11:20.072Z,29.25
2023-04-03T05:13:53.612Z,20.95
2023-04-03T05:16:25.685Z,18.73
2023-04-03T05:18:56.575Z,19.58
2023-04-03T05:21:28.247Z,23.30
2023-04-03T05:23:59.201Z,24.63
2023-04-03T05:26:29.526Z,20.98
2023-04-03T05:29:00.617Z,18.33
2023-04-03T05:31:31.733Z,23.02
2023-04-03T05:34:02.711Z,20.35
2023-04-03T05:36:35.788Z,18.58
2023-04-03T05:39:09.193Z,15.63
2023-04-03T05:41:42.580Z,21.70
2023-04-03T05:44:13.057Z,13.98
2023-04-03T05:46:45.003Z,19.10
2023-04-03T05:49:15.496Z,13.27
2023-04-03T05:51:47.097Z,9.73
2023-04-03T05:54:32.180Z,13.50
2023-04-03T05:57:12.483Z,20.10
2023-04-03T05:59:45.653Z,15.40
2023-04-03T06:02:19.550Z,16.92
2023-04-03T06:04:51.188Z,14.85
2023-04-03T06:07:24.959Z,17.17
2023-04-03T06:09:56.097Z,18.13
2023-04-03T06:12:26.931Z,19.05
2023-04-03T06:14:57.521Z,17.17
2023-04-03T06:17:29.149Z,16.20
2023-04-03T06:20:00.484Z,19.23
2023-04-03T06:22:32.222Z,17.33
2023-04-03T06:25:05.022Z,15.20
2023-04-03T06:27:35.127Z,17.52
2023-04-03T06:30:05.845Z,25.30
2023-04-03T06:32:35.999Z,20.60
2023-04-03T06:35:07.998Z,19.65
2023-04-03T06:37:38.241Z,20.17
2023-04-03T06:40:09.558Z,13.45
2023-04-03T06:42:39.572Z,15.98
2023-04-03T06:45:14.400Z,15.45
2023-04-03T06:47:44.580Z,21.00
2023-04-03T06:50:16.685Z,16.10
2023-04-03T06:52:47.817Z,21.00
2023-04-03T06:55:18.338Z,22.60
2023-04-03T06:57:48.459Z,18.70
2023-04-03T07:00:19.463Z,22.38
2023-04-03T07:02:49.596Z,16.05
2023-04-03T07:05:20.552Z,19.17
2023-04-03T07:07:51.977Z,18.85
2023-04-03T07:10:22.675Z,17.80
2023-04-03T07:12:53.227Z,18.88
2023-04-03T07:15:24.023Z,19.23
2023-04-03T07:17:54.172Z,15.27
2023-04-03T07:20:24.738Z,17.08
2023-04-03T07:22:54.784Z,18.50
2023-04-03T07:25:25.163Z,14.60
2023-04-03T07:27:56.577Z,15.35
2023-04-03T07:30:28.440Z,18.73
2023-04-03T07:32:58.722Z,21.60
2023-04-03T07:35:29.303Z,18.52
2023-04-03T07:37:59.330Z,16.30
2023-04-03T07:40:29.676Z,21.65
2023-04-03T07:42:59.912Z,14.40
2023-04-03T07:45:31.189Z,17.55
2023-04-03T07:48:02.408Z,16.83
2023-04-03T07:50:34.293Z,16.30
2023-04-03T07:53:05.000Z,12.02
2023-04-03T07:55:35.617Z,20.00
2023-04-03T07:58:05.767Z,15.60
2023-04-03T08:00:36.206Z,20.85
2023-04-03T08:03:08.526Z,21.23
2023-04-03T08:05:42.195Z,19.33
2023-04-03T08:08:14.124Z,24.02
2023-04-03T08:10:44.679Z,20.77
2023-04-03T08:13:14.731Z,19.20
2023-04-03T08:15:45.704Z,23.20
2023-04-03T08:18:17.073Z,26.35
2023-04-03T08:20:47.696Z,23.33
2023-04-03T08:23:20.088Z,24.02
2023-04-03T08:25:50.708Z,26.65
2023-04-03T08:28:20.702Z,19.45
2023-04-03T08:30:51.508Z,23.33
2023-04-03T08:33:21.587Z,23.20
2023-04-03T08:35:52.137Z,30.10
2023-04-03T08:38:22.557Z,27.45
2023-04-03T08:41:14.007Z,23.38
2023-04-03T08:43:49.831Z,22.48
2023-04-03T08:46:23.668Z,19.00
2023-04-03T08:48:54.349Z,23.05
2023-04-03T08:51:26.119Z,21.25
2023-04-03T08:54:05.357Z,16.67
2023-04-03T08:56:37.433Z,23.40
2023-04-03T08:59:15.320Z,22.50
2023-04-03T09:01:46.788Z,12.48
2023-04-03T09:04:20.494Z,19.38
2023-04-03T09:07:00.191Z,15.55
2023-04-03T09:09:44.718Z,17.90
2023-04-03T09:12:36.730Z,18.50
2023-04-03T09:15:37.644Z,20.20
2023-04-03T09:18:15.733Z,18.85
2023-04-03T09:20:54.318Z,23.20
2023-04-03T09:23:57.415Z,27.33
2023-04-03T09:26:29.267Z,23.27
2023-04-03T09:29:03.610Z,20.45
2023-04-03T09:31:42.699Z,27.65
2023-04-03T09:36:54.728Z,18.70
2023-04-03T09:39:31.185Z,23.38
2023-04-03T09:42:17.478Z,17.73
2023-04-03T09:44:59.730Z,22.95
2023-04-03T09:47:38.282Z,22.15
2023-04-03T09:50:17.860Z,13.38
2023-04-03T09:52:50.711Z,20.02
2023-04-03T09:55:29.524Z,13.77
2023-04-03T09:58:05.763Z,10.90
2023-04-03T10:00:42.547Z,20.08
2023-04-03T10:03:41.510Z,20.45
2023-04-03T10:09:06.673Z,16.48
2023-04-03T10:11:37.327Z,19.83
2023-04-03T10:14:09.121Z,16.60
2023-04-03T10:16:40.018Z,17.25
2023-04-03T10:19:13.143Z,13.63
2023-04-03T10:22:07.274Z,14.93
2023-04-03T10:25:20.877Z,11.35
2023-04-03T10:28:36.079Z,12.57
2023-04-03T10:31:11.057Z,14.02
2023-04-03T10:34:06.798Z,13.65
2023-04-03T10:36:40.723Z,11.02
2023-04-03T10:39:35.472Z,11.27
2023-04-03T10:42:25.585Z,10.20
2023-04-03T10:45:04.666Z,13.82
2023-04-03T10:47:57.229Z,12.70
2023-04-03T10:50:39.390Z,12.00
2023-04-03T10:53:15.367Z,10.93
2023-04-03T10:56:13.750Z,7.07
2023-04-03T10:58:51.222Z,14.13
2023-04-03T11:01:29.842Z,8.80
2023-04-03T11:04:03.121Z,11.25
2023-04-03T11:07:10.469Z,10.73
2023-04-03T11:09:46.839Z,8.05
2023-04-03T11:12:24.154Z,13.63
2023-04-03T11:14:56.438Z,10.38
2023-04-03T11:17:40.719Z,12.15
2023-04-03T11:20:29.505Z,12.48
2023-04-03T11:23:06.030Z,8.65
2023-04-03T11:25:39.526Z,9.35
2023-04-03T11:28:16.397Z,9.52
2023-04-03T11:31:11.068Z,10.70
2023-04-03T11:33:51.154Z,8.82
2023-04-03T11:36:32.894Z,12.55
2023-04-03T11:39:21.501Z,10.38
2023-04-03T11:42:00.214Z,9.90
2023-04-03T11:44:39.740Z,9.25
2023-04-03T11:47:12.412Z,9.00
2023-04-03T11:50:09.290Z,10.90
2023-04-03T11:52:44.348Z,9.10
2023-04-03T11:55:24.420Z,7.18
2023-04-03T11:58:00.551Z,8.90
2023-04-03T12:00:51.786Z,9.50
2023-04-03T12:03:28.798Z,8.23
2023-04-03T12:06:08.860Z,9.90
2023-04-03T12:08:45.342Z,11.93
2023-04-03T12:11:15.782Z,16.38
2023-04-03T12:14:07.035Z,10.27
2023-04-03T12:22:14.267Z,10.32
2023-04-03T12:24:50.705Z,11.35
2023-04-03T12:27:41.607Z,13.52
2023-04-03T12:30:38.100Z,10.07
2023-04-03T12:33:39.927Z,13.13
2023-04-03T12:36:17.535Z,13.15
2023-04-03T12:39:04.586Z,9.95
2023-04-03T12:41:47.026Z,9.63
2023-04-03T12:44:50.773Z,11.25
2023-04-03T12:47:32.011Z,10.93
2023-04-03T12:50:04.939Z,8.70
2023-04-03T12:53:01.882Z,11.57
2023-04-03T12:55:32.361Z,10.45
2023-04-03T12:58:38.023Z,8.85
2023-04-03T13:01:17.688Z,10.05
2023-04-03T13:03:50.960Z,17.75
2023-04-03T13:06:34.829Z,12.65
2023-04-03T13:09:06.306Z,12.75
2023-04-03T13:14:19.132Z,9.73
2023-04-03T13:17:15.046Z,12.57
2023-04-03T13:19:50.231Z,10.15
2023-04-03T13:22:28.268Z,9.13
2023-04-03T13:25:03.544Z,10.80
2023-04-03T13:27:35.530Z,8.23
2023-04-03T13:30:07.462Z,13.95
2023-04-03T13:32:38.843Z,8.68
2023-04-03T13:35:33.745Z,10.88
2023-04-03T13:38:25.528Z,9.02
2023-04-03T13:41:05.248Z,11.13
2023-04-03T13:43:39.621Z,11.85
2023-04-03T13:46:13.606Z,8.13
2023-04-03T13:48:53.640Z,10.93
2023-04-03T13:51:28.411Z,14.38
2023-04-03T13:54:22.373Z,8.77
2023-04-03T13:56:58.965Z,12.15
2023-04-03T13:59:38.009Z,12.45
2023-04-03T14:02:18.694Z,10.45
2023-04-03T14:05:03.343Z,10.80
2023-04-03T14:07:33.988Z,13.07
2023-04-03T14:10:06.201Z,11.45
2023-04-03T14:12:39.750Z,10.93
2023-04-03T14:15:27.384Z,11.27
2023-04-03T14:17:59.168Z,11.73
2023-04-03T14:20:31.194Z,9.85
2023-04-03T14:23:01.366Z,9.98
2023-04-03T14:25:32.395Z,11.50
2023-04-03T14:28:02.523Z,10.10
2023-04-03T14:30:35.729Z,8.50
2023-04-03T14:33:06.034Z,10.35
2023-04-03T14:35:36.777Z,10.68
2023-04-03T14:38:22.486Z,8.70
2023-04-03T14:40:55.525Z,8.63
2023-04-03T14:43:28.641Z,9.68
2023-04-03T14:45:59.309Z,12.00
2023-04-03T14:48:32.510Z,9.65
2023-04-03T14:51:05.992Z,7.63
2023-04-03T14:53:39.094Z,8.52
2023-04-03T14:56:18.469Z,11.20
2023-04-03T14:58:51.579Z,10.50
2023-04-03T15:01:22.633Z,6.28
2023-04-03T15:03:53.026Z,9.13
2023-04-03T15:06:24.387Z,7.72
2023-04-03T15:08:54.830Z,9.55
2023-04-03T15:11:25.350Z,13.35
2023-04-03T15:13:55.316Z,11.40
2023-04-03T15:16:25.900Z,7.07
2023-04-03T15:18:56.054Z,8.18
2023-04-03T15:21:27.572Z,9.40
2023-04-03T15:23:57.694Z,8.45
2023-04-03T15:26:28.300Z,8.82
2023-04-03T15:28:58.490Z,10.13
2023-04-03T15:31:29.771Z,10.20
2023-04-03T15:33:59.880Z,9.02
2023-04-03T15:36:34.609Z,16.23
2023-04-03T15:39:05.408Z,8.52
2023-04-03T15:41:36.017Z,10.38
2023-04-03T15:44:06.156Z,6.18
2023-04-03T15:46:36.711Z,10.43
2023-04-03T15:49:07.693Z,10.02
2023-04-03T15:51:38.556Z,7.50
2023-04-03T15:54:08.843Z,7.18
2023-04-03T15:56:39.374Z,7.25
2023-04-03T15:59:09.577Z,10.77
2023-04-03T16:01:41.491Z,10.63
2023-04-03T16:04:13.740Z,6.82
2023-04-03T16:06:45.960Z,8.85
2023-04-03T16:09:16.222Z,10.10
2023-04-03T16:11:47.162Z,10.88
2023-04-03T16:14:17.200Z,5.53
2023-04-03T16:16:47.692Z,8.40
2023-04-03T16:19:17.790Z,8.10
2023-04-03T16:21:48.779Z,9.02
2023-04-03T16:24:19.262Z,7.22
2023-04-03T16:26:49.891Z,9.55
2023-04-03T16:29:19.910Z,8.68
2023-04-03T16:31:50.717Z,8.70
2023-04-03T16:34:21.721Z,8.13
2023-04-03T16:36:51.749Z,7.18
2023-04-03T16:39:22.585Z,5.90
2023-04-03T16:41:52.645Z,8.18
2023-04-03T16:44:22.478Z,10.38
2023-04-03T16:46:52.971Z,7.30
2023-04-03T16:49:23.059Z,11.48
2023-04-03T16:51:54.457Z,8.57
2023-04-03T16:54:24.996Z,8.48
2023-04-03T16:56:55.493Z,8.55
2023-04-03T16:59:25.989Z,15.40
2023-04-03T17:01:56.746Z,13.68
2023-04-03T17:04:26.945Z,10.70
2023-04-03T17:06:57.863Z,6.93
2023-04-03T17:09:28.043Z,9.65
2023-04-03T17:11:58.523Z,8.85
2023-04-03T17:14:28.720Z,8.43
2023-04-03T17:16:59.370Z,6.75
2023-04-03T17:19:31.029Z,6.85
2023-04-03T17:22:02.014Z,10.25
2023-04-03T17:24:32.276Z,8.45
2023-04-03T17:27:02.825Z,7.97
2023-04-03T17:29:33.222Z,7.28
2023-04-03T17:32:03.874Z,7.55
2023-04-03T17:34:34.918Z,8.68
2023-04-03T17:37:05.960Z,8.50
2023-04-03T17:39:36.114Z,7.97
2023-04-03T17:42:06.929Z,8.48
2023-04-03T17:44:37.183Z,9.15
2023-04-03T17:47:07.792Z,7.00
2023-04-03T17:49:37.910Z,6.90
2023-04-03T17:52:08.456Z,7.38
2023-04-03T17:54:38.701Z,7.90
2023-04-03T17:57:10.057Z,6.38
2023-04-03T17:59:40.299Z,7.22
2023-04-03T18:02:10.839Z,8.65
2023-04-03T18:04:40.772Z,9.18
2023-04-03T18:07:12.991Z,9.27
2023-04-03T18:09:43.310Z,6.50
2023-04-03T18:12:13.823Z,5.65
2023-04-03T18:14:44.044Z,7.70
2023-04-03T18:17:15.060Z,10.82
2023-04-03T18:19:45.192Z,6.80
2023-04-03T18:22:18.843Z,6.50
2023-04-03T18:24:49.748Z,5.18
2023-04-03T18:27:23.073Z,8.82
2023-04-03T18:29:58.179Z,7.82
2023-04-03T18:32:29.713Z,7.22
2023-04-03T18:35:01.218Z,8.68
2023-04-03T18:37:33.020Z,6.32
2023-04-03T18:40:03.124Z,8.55
2023-04-03T18:42:33.676Z,7.70
2023-04-03T18:45:07.037Z,10.52
2023-04-03T18:47:38.237Z,7.97
2023-04-03T18:50:09.612Z,8.98
2023-04-03T18:55:12.284Z,10.45
2023-04-03T18:57:42.748Z,8.82
2023-04-03T19:00:13.781Z,7.47
2023-04-03T19:02:45.116Z,9.38
2023-04-03T19:05:18.495Z,6.47
2023-04-03T19:07:49.869Z,10.65
2023-04-03T19:10:21.156Z,5.18
2023-04-03T19:12:52.722Z,7.35
2023-04-03T19:15:25.485Z,12.02
2023-04-03T19:17:55.970Z,9.10
2023-04-03T19:20:26.353Z,10.13
2023-04-03T19:22:56.796Z,8.93
2023-04-03T19:25:26.922Z,8.93
2023-04-03T19:27:57.516Z,9.48
2023-04-03T19:30:27.674Z,9.15
2023-04-03T19:32:58.405Z,9.32
2023-04-03T19:35:29.184Z,13.27
2023-04-03T19:37:59.306Z,13.52
2023-04-03T19:40:30.821Z,11.95
2023-04-03T19:43:01.046Z,10.50
2023-04-03T19:45:31.707Z,12.13
2023-04-03T19:48:02.561Z,9.23
2023-04-03T19:50:34.166Z,6.03
2023-04-03T19:53:04.428Z,8.40
2023-04-03T19:55:36.350Z,7.60
2023-04-03T19:58:07.408Z,10.02
2023-04-03T20:00:37.948Z,10.55
2023-04-03T20:03:08.031Z,7.95
2023-04-03T20:05:38.728Z,11.98
2023-04-03T20:08:08.792Z,8.10
2023-04-03T20:10:41.660Z,13.63
2023-04-03T20:13:13.338Z,17.27
2023-04-03T20:15:45.960Z,9.30
2023-04-03T20:18:21.182Z,9.35
2023-04-03T20:20:56.617Z,8.95
2023-04-03T20:23:28.349Z,8.13
2023-04-03T20:26:09.282Z,10.48
2023-04-03T20:28:40.332Z,7.97
2023-04-03T20:31:11.117Z,11.52
2023-04-03T20:33:41.610Z,10.55
2023-04-03T20:36:11.808Z,11.45
2023-04-03T20:38:42.500Z,11.75
2023-04-03T20:41:12.517Z,12.43
2023-04-03T20:43:43.999Z,11.40
2023-04-03T20:46:15.299Z,13.75
2023-04-03T20:48:45.716Z,12.32
2023-04-03T20:51:19.478Z,13.35
2023-04-03T20:53:50.086Z,16.60
2023-04-03T20:56:20.176Z,16.05
2023-04-03T20:58:51.142Z,14.10
2023-04-03T21:01:25.564Z,20.08
2023-04-03T21:04:04.900Z,18.50
2023-04-03T21:07:12.088Z,16.30
2023-04-03T21:10:19.664Z,20.42
2023-04-03T21:13:26.559Z,14.52
2023-04-03T21:15:56.632Z,13.35
2023-04-03T21:18:40.587Z,18.38
2023-04-03T21:21:21.067Z,16.15
2023-04-03T21:23:52.206Z,23.40
2023-04-03T21:26:23.946Z,22.50
2023-04-03T21:28:54.369Z,15.13
2023-04-03T21:31:25.171Z,13.65
2023-04-03T21:33:55.879Z,16.70
2023-04-03T21:36:26.364Z,23.27
2023-04-03T21:38:59.219Z,21.55
2023-04-03T21:41:29.646Z,19.83
2023-04-03T21:43:59.977Z,22.27
2023-04-03T21:46:30.386Z,18.83
2023-04-03T21:49:00.445Z,18.33
2023-04-03T21:51:30.954Z,22.88
2023-04-03T21:54:01.141Z,24.25
2023-04-03T21:56:32.476Z,18.45
2023-04-03T21:59:06.024Z,21.67
2023-04-03T22:01:37.052Z,28.55
2023-04-03T22:04:07.128Z,27.63
2023-04-03T22:06:39.044Z,21.30
2023-04-03T22:09:09.323Z,21.85
2023-04-03T22:11:42.430Z,19.67
2023-04-03T22:14:13.355Z,20.02
2023-04-03T22:16:47.729Z,27.88
2023-04-03T22:19:17.740Z,15.20
2023-04-03T22:21:48.708Z,21.50
2023-04-03T22:24:21.374Z,19.38
2023-04-03T22:26:52.326Z,22.98
2023-04-03T22:29:22.367Z,22.10
2023-04-03T22:31:52.852Z,20.65
2023-04-03T22:34:24.415Z,21.05
2023-04-03T22:36:55.242Z,24.65
2023-04-03T22:39:25.268Z,23.45
2023-04-03T22:41:55.768Z,21.88
2023-04-03T22:44:27.494Z,19.85
2023-04-03T22:47:00.578Z,27.00
2023-04-03T22:49:30.634Z,27.17
2023-04-03T22:52:01.192Z,23.00
2023-04-03T22:54:31.219Z,23.08
2023-04-03T22:57:02.371Z,22.90
2023-04-03T22:59:33.801Z,20.58
2023-04-03T23:02:04.371Z,24.75
2023-04-03T23:04:34.497Z,21.50
2023-04-03T23:07:04.984Z,29.08
2023-04-03T23:09:35.099Z,30.02
2023-04-03T23:12:05.652Z,18.42
2023-04-03T23:14:35.670Z,26.42
2023-04-03T23:17:07.166Z,26.35
2023-04-03T23:19:37.197Z,21.33
2023-04-03T23:22:09.185Z,25.45
2023-04-03T23:24:42.908Z,19.63
2023-04-03T23:27:13.432Z,18.45
2023-04-03T23:29:44.593Z,27.05
2023-04-03T23:32:15.162Z,27.58
2023-04-03T23:34:45.177Z,17.15
2023-04-03T23:37:15.683Z,23.00
2023-04-03T23:39:45.715Z,20.77
2023-04-03T23:42:16.148Z,23.60
2023-04-03T23:44:46.220Z,24.80
2023-04-03T23:47:16.633Z,23.50
2023-04-03T23:49:47.124Z,19.58
2023-04-03T23:52:17.512Z,28.08
2023-04-03T23:54:47.950Z,18.70
2023-04-03T23:57:18.448Z,18.52
2023-04-03T23:59:48.492Z,18.25
